Willingdon, Canada
Current Conditions -  °F | °C
As of 1:09 AM on Monday 24 Nov 2014 (Local Time) from CYED Reporting Station
Overcast Overcast  
Wind Chill: 20°   Ceiling: 3600
Heat Index: 28°   Visibility: 2.5mi
Dew Point: 25°   Wind: 8mph
Humidity: 86%   Direction: 260°W
Pressure: 29.79"   Gusts: NA
Location:  53.83°N, 112.12°W
Report Text: CYED 240809Z AUTO 26007KT 2 1/2SM OVC036 M02/M04 A2979 RMK VSBY VRBL 2.5V9.+
Loading
Personal Weather Stations






























Interactive Weather Map New forecast layout! Learn more

10-Day Weather Forecast

Advertisements
Track Severe Weather on mobile